Aviation Digital Data Service (ADDS)

Output produced by METARs form (1714 UTC 16 June 2019)
found at http://www.aviationweather.gov/metar/data/
 
EKYT 161650Z AUTO 25015KT 9999 FEW140/// 19/12 Q1017
TAF EKYT 161421Z 1615/1715 24015KT 9999 SCT030 
     BECMG 1620/1623 20006KT 
     PROB40 1700/1705 4000 BR BKN004 
     BECMG 1709/1712 24012KT
       
EKAH 161650Z AUTO 22004KT 160V280 9999NDV SCT042/// BKN066/// 20/13 Q1019
TAF EKAH 161106Z 1612/1712 25008KT 9999 SCT020
       
EKBI 161650Z AUTO 22010KT 190V260 9999 BKN240/// 18/12 Q1019
TAF EKBI 161106Z 1612/1712 23008KT 9999 SCT020
       
EKRN 161650Z AUTO 27013KT 9999 FEW044/// SCT200/// 17/13 Q1018
TAF EKRN 161425Z 1615/1622 29012KT 9999 SCT030
       
EKEB 161650Z 22008KT 9999 FEW020 17/12 Q1019
TAF EKEB 161425Z 1615/1622 22010KT 9999 FEW008 SCT020 
     PROB40 1618/1622 BKN008
       
EKKA 161650Z AUTO 24011KT 180V270 9999 SCT031/// 20/13 Q1018
TAF EKKA 161422Z 1615/1715 23008KT 9999 SCT030 
     PROB40 1701/1704 2000 MIFG
       
EKCH 161650Z AUTO 29009KT 9999 NCD 20/12 Q1019 NOSIG
TAF EKCH 161106Z 1612/1712 30012KT 9999 FEW020 
     BECMG 1618/1621 24005KT
       
EKVD 161650Z AUTO 25011KT //// ///////// 19/12 Q1019
TAF EKVD 160857Z 1609/1615 26010KT 9999 SCT020
       
EKOD 161650Z 23008KT 9999 FEW040 19/12 Q1019
TAF EKOD 161710Z 1617/1621 23008KT 9999 FEW030
       
EKRK 161650Z AUTO 30006KT 9999 NCD 19/13 Q1019
TAF EKRK 161425Z 1615/1624 30010KT 9999 FEW030 
     BECMG 1618/1621 23005KT
       
EKSP 161650Z 23008KT 9999 FEW031 SCT070 19/13 Q1019
TAF EKSP 161422Z 1615/1715 23008KT 9999 SCT030 
     PROB40 1701/1704 2000 MIFG
       
EKSB 161650Z 27006KT 210V310 CAVOK 19/12 Q1019
TAF EKSB 161455Z 1615/1619 26006KT 9999 SCT040 
     PROB40 1616/1619 SHRA SCT025CB
       
EKVJ 161350Z 23010KT 9999 SCT045 18/15 Q1019
TAF EKVJ 160905Z 1609/1615 23010KT 9999 FEW020